sensor_id;sensor_type;location;lat;lon;timestamp;pressure;altitude;pressure_sealevel;temperature;humidity
13312;BME280;34033;48.672;9.376;2022-12-13T00:00:15;97934.88;;;-2.06;65.42
13312;BME280;34033;48.672;9.376;2022-12-13T00:02:43;97935.19;;;-2.07;65.47
13312;BME280;34033;48.672;9.376;2022-12-13T00:05:08;97925.84;;;-2.06;67.32
13312;BME280;34033;48.672;9.376;2022-12-13T00:07:34;97934.88;;;-2.06;68.14
13312;BME280;34033;48.672;9.376;2022-12-13T00:09:59;97930.03;;;-2.09;67.31
13312;BME280;34033;48.672;9.376;2022-12-13T00:12:25;97927.13;;;-2.13;65.79
13312;BME280;34033;48.672;9.376;2022-12-13T00:14:50;97926.50;;;-2.09;67.95
13312;BME280;34033;48.672;9.376;2022-12-13T00:17:16;97923.41;;;-2.08;68.68
13312;BME280;34033;48.672;9.376;2022-12-13T00:19:41;97914.41;;;-2.08;68.34
13312;BME280;34033;48.672;9.376;2022-12-13T00:22:06;97925.69;;;-2.10;66.21
13312;BME280;34033;48.672;9.376;2022-12-13T00:24:31;97920.69;;;-2.08;67.28
13312;BME280;34033;48.672;9.376;2022-12-13T00:26:57;97920.84;;;-2.13;68.66
13312;BME280;34033;48.672;9.376;2022-12-13T00:29:22;97929.72;;;-2.16;69.09
13312;BME280;34033;48.672;9.376;2022-12-13T00:31:47;97921.31;;;-2.20;68.96
13312;BME280;34033;48.672;9.376;2022-12-13T00:34:13;97921.81;;;-2.18;68.35
13312;BME280;34033;48.672;9.376;2022-12-13T00:36:38;97918.09;;;-2.22;66.39
13312;BME280;34033;48.672;9.376;2022-12-13T00:39:04;97911.47;;;-2.29;64.05
13312;BME280;34033;48.672;9.376;2022-12-13T00:41:31;97916.94;;;-2.29;64.85
13312;BME280;34033;48.672;9.376;2022-12-13T00:43:58;97908.75;;;-2.29;66.31
13312;BME280;34033;48.672;9.376;2022-12-13T00:46:23;97914.72;;;-2.27;66.38
13312;BME280;34033;48.672;9.376;2022-12-13T00:48:53;97917.91;;;-2.25;66.33
13312;BME280;34033;48.672;9.376;2022-12-13T00:51:19;97910.34;;;-2.28;65.33
13312;BME280;34033;48.672;9.376;2022-12-13T00:53:46;97903.75;;;-2.27;66.64
13312;BME280;34033;48.672;9.376;2022-12-13T00:56:13;97903.25;;;-2.29;66.26
13312;BME280;34033;48.672;9.376;2022-12-13T00:58:40;97891.81;;;-2.31;67.71
13312;BME280;34033;48.672;9.376;2022-12-13T01:01:07;97885.72;;;-2.28;66.67
13312;BME280;34033;48.672;9.376;2022-12-13T01:03:33;97888.97;;;-2.26;67.16
13312;BME280;34033;48.672;9.376;2022-12-13T01:06:00;97891.69;;;-2.26;66.02
13312;BME280;34033;48.672;9.376;2022-12-13T01:08:26;97884.09;;;-2.29;64.64
13312;BME280;34033;48.672;9.376;2022-12-13T01:10:52;97886.03;;;-2.30;65.55
13312;BME280;34033;48.672;9.376;2022-12-13T01:13:18;97880.25;;;-2.28;66.61
13312;BME280;34033;48.672;9.376;2022-12-13T01:15:45;97888.63;;;-2.33;67.11
13312;BME280;34033;48.672;9.376;2022-12-13T01:18:12;97893.59;;;-2.35;67.63
13312;BME280;34033;48.672;9.376;2022-12-13T01:20:38;97885.22;;;-2.39;67.21
13312;BME280;34033;48.672;9.376;2022-12-13T01:23:04;97884.91;;;-2.37;67.20
13312;BME280;34033;48.672;9.376;2022-12-13T01:25:30;97897.78;;;-2.38;66.13
13312;BME280;34033;48.672;9.376;2022-12-13T01:27:58;97893.13;;;-2.37;65.59
13312;BME280;34033;48.672;9.376;2022-12-13T01:30:23;97890.84;;;-2.35;67.42
13312;BME280;34033;48.672;9.376;2022-12-13T01:32:49;97892.63;;;-2.39;67.47
13312;BME280;34033;48.672;9.376;2022-12-13T01:35:15;97893.91;;;-2.45;67.52
13312;BME280;34033;48.672;9.376;2022-12-13T01:37:40;97891.81;;;-2.48;67.87
13312;BME280;34033;48.672;9.376;2022-12-13T01:40:06;97890.81;;;-2.53;67.96
13312;BME280;34033;48.672;9.376;2022-12-13T01:42:31;97888.72;;;-2.56;67.55
13312;BME280;34033;48.672;9.376;2022-12-13T01:45:14;97889.19;;;-2.54;68.17
13312;BME280;34033;48.672;9.376;2022-12-13T01:47:50;97883.41;;;-2.61;65.17
13312;BME280;34033;48.672;9.376;2022-12-13T01:50:31;97880.03;;;-2.58;64.72
13312;BME280;34033;48.672;9.376;2022-12-13T01:52:58;97873.44;;;-2.57;65.44
13312;BME280;34033;48.672;9.376;2022-12-13T01:55:27;97872.94;;;-2.59;66.27
13312;BME280;34033;48.672;9.376;2022-12-13T01:57:54;97870.84;;;-2.62;64.74
13312;BME280;34033;48.672;9.376;2022-12-13T02:00:21;97863.75;;;-2.63;65.55
13312;BME280;34033;48.672;9.376;2022-12-13T02:02:47;97862.13;;;-2.64;64.25
13312;BME280;34033;48.672;9.376;2022-12-13T02:05:20;97864.41;;;-2.66;65.09
13312;BME280;34033;48.672;9.376;2022-12-13T02:07:47;97869.38;;;-2.68;67.33
13312;BME280;34033;48.672;9.376;2022-12-13T02:10:12;97856.34;;;-2.71;67.13
13312;BME280;34033;48.672;9.376;2022-12-13T02:12:39;97852.47;;;-2.70;68.68
13312;BME280;34033;48.672;9.376;2022-12-13T02:15:10;97848.94;;;-2.70;65.88
13312;BME280;34033;48.672;9.376;2022-12-13T02:23:26;97850.38;;;-2.73;64.89
13312;BME280;34033;48.672;9.376;2022-12-13T02:26:31;97838.31;;;-2.72;66.08
13312;BME280;34033;48.672;9.376;2022-12-13T02:31:34;97833.00;;;-2.77;66.98
13312;BME280;34033;48.672;9.376;2022-12-13T02:34:20;97852.31;;;-2.82;68.29
13312;BME280;34033;48.672;9.376;2022-12-13T02:37:01;97847.94;;;-2.83;66.17
13312;BME280;34033;48.672;9.376;2022-12-13T02:39:34;97844.91;;;-2.81;67.05
13312;BME280;34033;48.672;9.376;2022-12-13T02:42:06;97838.28;;;-2.80;67.85
13312;BME280;34033;48.672;9.376;2022-12-13T02:44:42;97846.81;;;-2.82;67.17
13312;BME280;34033;48.672;9.376;2022-12-13T02:47:14;97841.81;;;-2.80;66.42
13312;BME280;34033;48.672;9.376;2022-12-13T02:49:46;97845.22;;;-2.83;67.68
13312;BME280;34033;48.672;9.376;2022-12-13T02:52:15;97849.56;;;-2.82;67.96
13312;BME280;34033;48.672;9.376;2022-12-13T02:54:41;97840.22;;;-2.81;69.06
13312;BME280;34033;48.672;9.376;2022-12-13T02:57:32;97844.72;;;-2.85;66.61
13312;BME280;34033;48.672;9.376;2022-12-13T03:00:03;97835.53;;;-2.89;66.27
13312;BME280;34033;48.672;9.376;2022-12-13T03:03:21;97836.97;;;-2.91;66.67
13312;BME280;34033;48.672;9.376;2022-12-13T03:10:56;97814.44;;;-2.97;64.13
13312;BME280;34033;48.672;9.376;2022-12-13T03:16:22;97818.31;;;-2.98;64.60
13312;BME280;34033;48.672;9.376;2022-12-13T03:18:51;97814.09;;;-3.04;65.06
13312;BME280;34033;48.672;9.376;2022-12-13T03:21:17;97807.03;;;-3.05;65.19
13312;BME280;34033;48.672;9.376;2022-12-13T03:23:44;97804.59;;;-3.07;66.43
13312;BME280;34033;48.672;9.376;2022-12-13T03:26:14;97805.41;;;-3.06;67.76
13312;BME280;34033;48.672;9.376;2022-12-13T03:28:41;97806.50;;;-3.16;67.90
13312;BME280;34033;48.672;9.376;2022-12-13T03:31:07;97816.47;;;-3.20;68.35
13312;BME280;34033;48.672;9.376;2022-12-13T03:33:32;97819.00;;;-3.23;68.73
13312;BME280;34033;48.672;9.376;2022-12-13T03:35:59;97816.94;;;-3.26;68.69
13312;BME280;34033;48.672;9.376;2022-12-13T03:38:25;97810.66;;;-3.27;68.35
13312;BME280;34033;48.672;9.376;2022-12-13T03:40:57;97813.06;;;-3.25;67.91
13312;BME280;34033;48.672;9.376;2022-12-13T03:43:23;97815.66;;;-3.20;67.55
13312;BME280;34033;48.672;9.376;2022-12-13T03:45:50;97811.16;;;-3.16;65.58
13312;BME280;34033;48.672;9.376;2022-12-13T03:48:15;97805.69;;;-3.16;65.58
13312;BME280;34033;48.672;9.376;2022-12-13T03:50:41;97801.03;;;-3.16;65.98
13312;BME280;34033;48.672;9.376;2022-12-13T03:53:06;97800.53;;;-3.18;67.71
13312;BME280;34033;48.672;9.376;2022-12-13T03:55:31;97804.22;;;-3.22;68.38
13312;BME280;34033;48.672;9.376;2022-12-13T03:57:56;97805.84;;;-3.21;67.27
13312;BME280;34033;48.672;9.376;2022-12-13T04:00:22;97803.59;;;-3.19;65.35
13312;BME280;34033;48.672;9.376;2022-12-13T04:02:47;97783.53;;;-1.31;100.00
13312;BME280;34033;48.672;9.376;2022-12-13T04:05:13;97790.16;;;-1.78;100.00
13312;BME280;34033;48.672;9.376;2022-12-13T04:07:38;97794.09;;;-2.22;100.00
13312;BME280;34033;48.672;9.376;2022-12-13T04:10:04;97785.22;;;-2.71;100.00
13312;BME280;34033;48.672;9.376;2022-12-13T04:12:30;97789.84;;;-2.88;84.45
13312;BME280;34033;48.672;9.376;2022-12-13T04:15:14;97784.84;;;-2.95;72.73
13312;BME280;34033;48.672;9.376;2022-12-13T04:17:39;97781.94;;;-2.99;68.54
13312;BME280;34033;48.672;9.376;2022-12-13T04:20:05;97784.50;;;-3.02;67.99
13312;BME280;34033;48.672;9.376;2022-12-13T04:22:31;97786.44;;;-3.03;68.56
13312;BME280;34033;48.672;9.376;2022-12-13T04:24:56;97784.94;;;-3.17;65.87
13312;BME280;34033;48.672;9.376;2022-12-13T04:27:21;97786.41;;;-3.11;64.51
13312;BME280;34033;48.672;9.376;2022-12-13T04:29:47;97783.66;;;-3.20;67.56
13312;BME280;34033;48.672;9.376;2022-12-13T04:32:12;97793.94;;;-3.25;69.01
13312;BME280;34033;48.672;9.376;2022-12-13T04:34:37;97785.25;;;-3.27;70.66
13312;BME280;34033;48.672;9.376;2022-12-13T04:37:03;97787.66;;;-3.26;68.21
13312;BME280;34033;48.672;9.376;2022-12-13T04:39:28;97784.28;;;-3.23;68.48
13312;BME280;34033;48.672;9.376;2022-12-13T04:41:54;97787.97;;;-3.27;69.07
13312;BME280;34033;48.672;9.376;2022-12-13T04:44:19;97803.88;;;-3.29;69.30
13312;BME280;34033;48.672;9.376;2022-12-13T04:46:44;97802.59;;;-3.32;69.26
13312;BME280;34033;48.672;9.376;2022-12-13T04:49:10;97787.16;;;-3.37;70.42
13312;BME280;34033;48.672;9.376;2022-12-13T04:51:35;97794.19;;;-3.36;70.13
13312;BME280;34033;48.672;9.376;2022-12-13T04:54:00;97787.94;;;-3.36;68.14
13312;BME280;34033;48.672;9.376;2022-12-13T04:56:26;97791.31;;;-3.39;68.85
13312;BME280;34033;48.672;9.376;2022-12-13T04:58:51;97780.22;;;-3.43;68.26
13312;BME280;34033;48.672;9.376;2022-12-13T05:01:16;97779.56;;;-3.40;65.15
13312;BME280;34033;48.672;9.376;2022-12-13T05:03:42;97776.84;;;-3.40;67.82
13312;BME280;34033;48.672;9.376;2022-12-13T05:06:09;97778.75;;;-3.49;69.75
13312;BME280;34033;48.672;9.376;2022-12-13T05:08:36;97774.66;;;-3.60;66.59
13312;BME280;34033;48.672;9.376;2022-12-13T05:11:02;97779.69;;;-3.53;66.09
13312;BME280;34033;48.672;9.376;2022-12-13T05:13:28;97780.97;;;-3.51;67.06
13312;BME280;34033;48.672;9.376;2022-12-13T05:15:58;97776.00;;;-3.49;67.24
13312;BME280;34033;48.672;9.376;2022-12-13T05:18:24;97774.56;;;-3.46;66.36
13312;BME280;34033;48.672;9.376;2022-12-13T05:20:50;97770.41;;;-3.44;67.70
13312;BME280;34033;48.672;9.376;2022-12-13T05:23:19;97771.38;;;-3.40;65.00
13312;BME280;34033;48.672;9.376;2022-12-13T05:25:45;97774.09;;;-3.40;64.63
13312;BME280;34033;48.672;9.376;2022-12-13T05:28:10;97772.47;;;-3.41;64.76
13312;BME280;34033;48.672;9.376;2022-12-13T05:30:37;97768.63;;;-3.40;64.58
13312;BME280;34033;48.672;9.376;2022-12-13T05:33:02;97776.16;;;-3.45;64.74
13312;BME280;34033;48.672;9.376;2022-12-13T05:35:28;97775.19;;;-3.49;66.91
13312;BME280;34033;48.672;9.376;2022-12-13T05:37:53;97773.06;;;-3.52;68.08
13312;BME280;34033;48.672;9.376;2022-12-13T05:40:18;97776.16;;;-3.54;66.16
13312;BME280;34033;48.672;9.376;2022-12-13T05:42:44;97770.19;;;-3.56;67.81
13312;BME280;34033;48.672;9.376;2022-12-13T05:45:10;97763.09;;;-3.57;67.66
13312;BME280;34033;48.672;9.376;2022-12-13T05:47:36;97768.56;;;-3.57;69.05
13312;BME280;34033;48.672;9.376;2022-12-13T05:50:02;97767.75;;;-3.57;66.04
13312;BME280;34033;48.672;9.376;2022-12-13T05:52:27;97762.28;;;-3.57;65.38
13312;BME280;34033;48.672;9.376;2022-12-13T05:54:54;97761.34;;;-3.53;67.85
13312;BME280;34033;48.672;9.376;2022-12-13T05:57:22;97756.53;;;-3.47;69.75
13312;BME280;34033;48.672;9.376;2022-12-13T05:59:48;97762.81;;;-3.47;70.95
13312;BME280;34033;48.672;9.376;2022-12-13T06:02:14;97755.88;;;-3.53;71.58
13312;BME280;34033;48.672;9.376;2022-12-13T06:04:41;97734.47;;;3.56;100.00
13312;BME280;34033;48.672;9.376;2022-12-13T06:07:07;97741.25;;;2.61;100.00
13312;BME280;34033;48.672;9.376;2022-12-13T06:09:32;97740.81;;;1.19;100.00
13312;BME280;34033;48.672;9.376;2022-12-13T06:11:58;97735.00;;;0.15;100.00
13312;BME280;34033;48.672;9.376;2022-12-13T06:14:23;97742.44;;;-0.60;100.00
13312;BME280;34033;48.672;9.376;2022-12-13T06:16:52;97755.63;;;-1.24;100.00
13312;BME280;34033;48.672;9.376;2022-12-13T06:19:18;97751.00;;;-1.79;100.00
13312;BME280;34033;48.672;9.376;2022-12-13T06:21:44;97751.41;;;-2.23;100.00
13312;BME280;34033;48.672;9.376;2022-12-13T06:24:09;97763.16;;;-2.57;100.00
13312;BME280;34033;48.672;9.376;2022-12-13T06:26:35;97767.50;;;-2.82;100.00
13312;BME280;34033;48.672;9.376;2022-12-13T06:29:00;97759.44;;;-3.04;100.00
13312;BME280;34033;48.672;9.376;2022-12-13T06:31:25;97766.59;;;-3.25;100.00
13312;BME280;34033;48.672;9.376;2022-12-13T06:33:50;97761.91;;;-3.42;100.00
13312;BME280;34033;48.672;9.376;2022-12-13T06:36:16;97758.50;;;-3.39;86.81
13312;BME280;34033;48.672;9.376;2022-12-13T06:38:41;97755.13;;;-3.45;77.52
13312;BME280;34033;48.672;9.376;2022-12-13T06:43:32;97749.66;;;-3.45;71.11
13312;BME280;34033;48.672;9.376;2022-12-13T06:45:57;97745.94;;;-3.49;70.28
13312;BME280;34033;48.672;9.376;2022-12-13T06:48:23;97749.13;;;-3.55;68.28
13312;BME280;34033;48.672;9.376;2022-12-13T06:50:48;97756.34;;;-3.59;70.13
13312;BME280;34033;48.672;9.376;2022-12-13T06:53:14;97755.59;;;-3.82;68.35
13312;BME280;34033;48.672;9.376;2022-12-13T06:55:39;97752.38;;;-3.84;68.09
13312;BME280;34033;48.672;9.376;2022-12-13T06:58:04;97766.59;;;-3.96;67.99
13312;BME280;34033;48.672;9.376;2022-12-13T07:00:30;97777.84;;;-3.97;67.42
13312;BME280;34033;48.672;9.376;2022-12-13T07:02:55;97776.28;;;-3.90;66.00
13312;BME280;34033;48.672;9.376;2022-12-13T07:05:21;97764.91;;;-3.83;69.10
13312;BME280;34033;48.672;9.376;2022-12-13T07:07:46;97763.66;;;-3.77;68.46
13312;BME280;34033;48.672;9.376;2022-12-13T07:10:12;97767.81;;;-3.80;66.83
13312;BME280;34033;48.672;9.376;2022-12-13T07:12:37;97766.84;;;-3.84;65.72
13312;BME280;34033;48.672;9.376;2022-12-13T07:15:03;97763.56;;;0.02;100.00
13312;BME280;34033;48.672;9.376;2022-12-13T07:17:28;97763.34;;;-0.26;100.00
13312;BME280;34033;48.672;9.376;2022-12-13T07:19:54;97763.47;;;-0.85;100.00
13312;BME280;34033;48.672;9.376;2022-12-13T07:22:19;97769.88;;;-1.39;100.00
13312;BME280;34033;48.672;9.376;2022-12-13T07:24:45;97778.44;;;-1.96;100.00
13312;BME280;34033;48.672;9.376;2022-12-13T07:27:10;97775.72;;;-2.47;92.50
13312;BME280;34033;48.672;9.376;2022-12-13T07:29:36;97775.41;;;-2.63;74.62
13312;BME280;34033;48.672;9.376;2022-12-13T07:32:01;97782.66;;;-2.76;69.10
13312;BME280;34033;48.672;9.376;2022-12-13T07:34:27;97784.53;;;-2.93;69.79
13312;BME280;34033;48.672;9.376;2022-12-13T07:36:52;97782.88;;;-3.03;69.38
13312;BME280;34033;48.672;9.376;2022-12-13T07:39:17;97785.78;;;-3.08;68.88
13312;BME280;34033;48.672;9.376;2022-12-13T07:41:43;97790.41;;;-3.17;69.15
13312;BME280;34033;48.672;9.376;2022-12-13T07:44:08;97792.66;;;-3.19;68.28
13312;BME280;34033;48.672;9.376;2022-12-13T07:46:33;97795.22;;;-3.23;69.24
13312;BME280;34033;48.672;9.376;2022-12-13T07:49:01;97799.56;;;-3.22;68.67
13312;BME280;34033;48.672;9.376;2022-12-13T07:51:26;97797.97;;;-3.23;68.95
13312;BME280;34033;48.672;9.376;2022-12-13T07:53:52;97797.47;;;-3.25;68.60
13312;BME280;34033;48.672;9.376;2022-12-13T07:56:17;97796.31;;;-3.32;68.76
13312;BME280;34033;48.672;9.376;2022-12-13T07:58:42;97798.09;;;-3.37;68.31
13312;BME280;34033;48.672;9.376;2022-12-13T08:01:09;97806.13;;;-3.31;68.55
13312;BME280;34033;48.672;9.376;2022-12-13T08:03:36;97806.13;;;-3.31;67.57
13312;BME280;34033;48.672;9.376;2022-12-13T08:06:09;97808.72;;;-3.26;68.12
13312;BME280;34033;48.672;9.376;2022-12-13T08:08:36;97815.66;;;-3.20;68.43
13312;BME280;34033;48.672;9.376;2022-12-13T08:11:12;97813.91;;;-3.16;66.89
13312;BME280;34033;48.672;9.376;2022-12-13T08:13:38;97815.84;;;-3.08;66.66
13312;BME280;34033;48.672;9.376;2022-12-13T08:16:06;97814.91;;;-3.04;67.21
13312;BME280;34033;48.672;9.376;2022-12-13T08:18:32;97815.06;;;-3.00;67.94
13312;BME280;34033;48.672;9.376;2022-12-13T08:20:59;97810.41;;;-3.00;66.43
13312;BME280;34033;48.672;9.376;2022-12-13T08:23:25;97812.03;;;-2.90;67.18
13312;BME280;34033;48.672;9.376;2022-12-13T08:25:52;97812.53;;;-2.88;66.16
13312;BME280;34033;48.672;9.376;2022-12-13T08:28:17;97810.13;;;-2.89;66.91
13312;BME280;34033;48.672;9.376;2022-12-13T08:30:42;97806.56;;;-2.90;66.59
13312;BME280;34033;48.672;9.376;2022-12-13T08:33:08;97813.66;;;-2.89;66.63
13312;BME280;34033;48.672;9.376;2022-12-13T08:35:33;97817.66;;;-2.86;68.41
13312;BME280;34033;48.672;9.376;2022-12-13T08:37:58;97813.66;;;-2.89;68.80
13312;BME280;34033;48.672;9.376;2022-12-13T08:40:24;97825.41;;;-2.80;68.17
13312;BME280;34033;48.672;9.376;2022-12-13T08:42:49;97817.88;;;-2.74;67.82
13312;BME280;34033;48.672;9.376;2022-12-13T08:45:14;97817.91;;;-2.66;67.72
13312;BME280;34033;48.672;9.376;2022-12-13T08:47:39;97820.94;;;-1.26;100.00
13312;BME280;34033;48.672;9.376;2022-12-13T08:50:05;97821.84;;;-1.51;100.00
13312;BME280;34033;48.672;9.376;2022-12-13T08:52:32;97819.00;;;-1.81;93.45
13312;BME280;34033;48.672;9.376;2022-12-13T08:54:57;97813.06;;;-1.91;78.13
13312;BME280;34033;48.672;9.376;2022-12-13T08:57:22;97819.34;;;-1.91;69.01
13312;BME280;34033;48.672;9.376;2022-12-13T08:59:48;97823.88;;;-1.95;68.90
13312;BME280;34033;48.672;9.376;2022-12-13T09:02:14;97829.97;;;-1.98;67.94
13312;BME280;34033;48.672;9.376;2022-12-13T09:04:40;97827.06;;;-1.93;67.82
13312;BME280;34033;48.672;9.376;2022-12-13T09:07:06;97822.22;;;-1.87;67.05
13312;BME280;34033;48.672;9.376;2022-12-13T09:09:31;97819.66;;;-1.84;67.76
13312;BME280;34033;48.672;9.376;2022-12-13T09:11:56;97809.66;;;-1.80;69.78
13312;BME280;34033;48.672;9.376;2022-12-13T09:14:22;97799.16;;;-1.69;69.77
13312;BME280;34033;48.672;9.376;2022-12-13T09:16:47;97797.34;;;-1.56;68.61
13312;BME280;34033;48.672;9.376;2022-12-13T09:19:12;97789.91;;;-1.47;67.99
13312;BME280;34033;48.672;9.376;2022-12-13T09:21:38;97791.81;;;-1.39;68.24
13312;BME280;34033;48.672;9.376;2022-12-13T09:24:03;97785.97;;;-1.29;68.84
13312;BME280;34033;48.672;9.376;2022-12-13T09:26:29;97793.81;;;-1.19;68.40
13312;BME280;34033;48.672;9.376;2022-12-13T09:28:54;97785.69;;;-1.07;66.23
13312;BME280;34033;48.672;9.376;2022-12-13T09:31:20;97785.00;;;-0.95;67.25
13312;BME280;34033;48.672;9.376;2022-12-13T09:33:45;97791.44;;;-0.91;65.96
13312;BME280;34033;48.672;9.376;2022-12-13T09:36:14;97791.56;;;-0.88;64.60
13312;BME280;34033;48.672;9.376;2022-12-13T09:38:39;97783.75;;;-0.77;65.87
13312;BME280;34033;48.672;9.376;2022-12-13T09:43:41;97791.13;;;-0.48;65.02
13312;BME280;34033;48.672;9.376;2022-12-13T09:46:12;97793.44;;;-0.29;65.78
13312;BME280;34033;48.672;9.376;2022-12-13T09:48:41;97796.25;;;-0.17;65.24
13312;BME280;34033;48.672;9.376;2022-12-13T09:51:08;97786.66;;;-0.11;64.41
13312;BME280;34033;48.672;9.376;2022-12-13T09:53:34;97792.66;;;0.03;64.28
13312;BME280;34033;48.672;9.376;2022-12-13T09:56:00;97794.56;;;2.21;100.00
13312;BME280;34033;48.672;9.376;2022-12-13T09:58:28;97777.63;;;4.56;100.00
13312;BME280;34033;48.672;9.376;2022-12-13T10:00:55;97769.25;;;5.21;71.23
13312;BME280;34033;48.672;9.376;2022-12-13T10:03:22;97779.81;;;4.70;61.11
13312;BME280;34033;48.672;9.376;2022-12-13T10:05:59;97770.50;;;3.98;57.78
13312;BME280;34033;48.672;9.376;2022-12-13T10:08:35;97775.22;;;3.43;57.44
13312;BME280;34033;48.672;9.376;2022-12-13T10:11:01;97779.66;;;2.97;56.86
13312;BME280;34033;48.672;9.376;2022-12-13T10:16:13;97763.75;;;2.31;55.97
13312;BME280;34033;48.672;9.376;2022-12-13T10:18:41;97753.72;;;2.11;56.69
13312;BME280;34033;48.672;9.376;2022-12-13T10:21:14;97761.28;;;1.98;57.22
13312;BME280;34033;48.672;9.376;2022-12-13T10:23:41;97750.72;;;1.88;56.62
13312;BME280;34033;48.672;9.376;2022-12-13T10:26:09;97748.72;;;1.73;56.40
13312;BME280;34033;48.672;9.376;2022-12-13T10:28:35;97757.13;;;1.64;56.54
13312;BME280;34033;48.672;9.376;2022-12-13T10:31:01;97749.28;;;1.66;55.76
13312;BME280;34033;48.672;9.376;2022-12-13T10:33:32;97754.72;;;1.63;55.79
13312;BME280;34033;48.672;9.376;2022-12-13T10:38:38;97750.69;;;1.60;55.95
13312;BME280;34033;48.672;9.376;2022-12-13T10:41:44;97748.44;;;1.50;55.82
13312;BME280;34033;48.672;9.376;2022-12-13T10:46:41;97744.19;;;1.53;55.27
13312;BME280;34033;48.672;9.376;2022-12-13T10:49:37;97736.72;;;1.53;55.38
13312;BME280;34033;48.672;9.376;2022-12-13T10:52:05;97742.88;;;1.62;55.36
13312;BME280;34033;48.672;9.376;2022-12-13T10:54:32;97735.78;;;1.61;54.41
13312;BME280;34033;48.672;9.376;2022-12-13T10:57:00;97733.22;;;1.68;56.04
13312;BME280;34033;48.672;9.376;2022-12-13T10:59:31;97735.50;;;1.79;55.31
13312;BME280;34033;48.672;9.376;2022-12-13T11:01:57;97727.97;;;1.91;54.86
13312;BME280;34033;48.672;9.376;2022-12-13T11:04:32;97724.97;;;1.96;54.68
13312;BME280;34033;48.672;9.376;2022-12-13T11:07:00;97723.56;;;2.02;53.84
13312;BME280;34033;48.672;9.376;2022-12-13T11:09:33;97707.47;;;2.64;73.47
13312;BME280;34033;48.672;9.376;2022-12-13T11:12:01;97716.88;;;2.63;62.57
13312;BME280;34033;48.672;9.376;2022-12-13T11:14:31;97721.13;;;2.44;53.18
13312;BME280;34033;48.672;9.376;2022-12-13T11:17:08;97723.19;;;2.47;53.76
13312;BME280;34033;48.672;9.376;2022-12-13T11:19:46;97714.81;;;2.44;52.72
13312;BME280;34033;48.672;9.376;2022-12-13T11:22:24;97711.91;;;2.37;51.45
13312;BME280;34033;48.672;9.376;2022-12-13T11:25:02;97719.63;;;2.31;52.45
13312;BME280;34033;48.672;9.376;2022-12-13T11:27:43;97706.91;;;2.42;53.75
13312;BME280;34033;48.672;9.376;2022-12-13T11:38:47;97693.00;;;2.39;52.08
13312;BME280;34033;48.672;9.376;2022-12-13T11:41:47;97690.78;;;2.44;52.82
13312;BME280;34033;48.672;9.376;2022-12-13T11:44:18;97679.41;;;2.46;50.42
13312;BME280;34033;48.672;9.376;2022-12-13T11:46:52;97683.31;;;2.45;51.03
13312;BME280;34033;48.672;9.376;2022-12-13T11:52:23;97667.56;;;2.61;51.04
13312;BME280;34033;48.672;9.376;2022-12-13T11:57:37;97673.34;;;2.72;50.81
13312;BME280;34033;48.672;9.376;2022-12-13T12:00:22;97674.16;;;2.72;49.93
13312;BME280;34033;48.672;9.376;2022-12-13T12:02:54;97686.06;;;2.76;50.22
13312;BME280;34033;48.672;9.376;2022-12-13T12:05:32;97689.72;;;2.65;49.32
13312;BME280;34033;48.672;9.376;2022-12-13T12:08:05;97688.28;;;2.71;49.34
13312;BME280;34033;48.672;9.376;2022-12-13T12:10:41;97676.66;;;2.62;49.47
13312;BME280;34033;48.672;9.376;2022-12-13T12:13:18;97687.50;;;2.70;49.29
13312;BME280;34033;48.672;9.376;2022-12-13T12:16:09;97690.88;;;2.79;49.28
13312;BME280;34033;48.672;9.376;2022-12-13T12:18:37;97684.28;;;2.84;49.17
13312;BME280;34033;48.672;9.376;2022-12-13T12:30:02;97666.13;;;2.83;47.91
13312;BME280;34033;48.672;9.376;2022-12-13T12:43:40;97664.75;;;3.08;47.71
13312;BME280;34033;48.672;9.376;2022-12-13T12:46:37;97659.81;;;3.17;48.48
13312;BME280;34033;48.672;9.376;2022-12-13T13:00:11;97650.38;;;3.38;48.07
13312;BME280;34033;48.672;9.376;2022-12-13T13:05:23;97649.97;;;3.35;46.93
13312;BME280;34033;48.672;9.376;2022-12-13T13:08:01;97647.25;;;3.39;47.08
13312;BME280;34033;48.672;9.376;2022-12-13T13:10:30;97642.91;;;3.38;47.35
13312;BME280;34033;48.672;9.376;2022-12-13T13:12:56;97640.22;;;3.42;47.54
13312;BME280;34033;48.672;9.376;2022-12-13T13:17:57;97628.84;;;3.27;46.36
13312;BME280;34033;48.672;9.376;2022-12-13T13:20:24;97634.72;;;3.26;46.22
13312;BME280;34033;48.672;9.376;2022-12-13T13:22:51;97631.09;;;3.22;46.01
13312;BME280;34033;48.672;9.376;2022-12-13T13:25:29;97631.03;;;3.18;46.92
13312;BME280;34033;48.672;9.376;2022-12-13T13:28:04;97625.63;;;3.06;46.38
13312;BME280;34033;48.672;9.376;2022-12-13T13:30:31;97622.94;;;3.10;47.11
13312;BME280;34033;48.672;9.376;2022-12-13T13:32:57;97620.34;;;2.98;45.95
13312;BME280;34033;48.672;9.376;2022-12-13T13:38:04;97626.50;;;2.91;46.60
13312;BME280;34033;48.672;9.376;2022-12-13T13:40:45;97630.06;;;2.91;47.41
13312;BME280;34033;48.672;9.376;2022-12-13T14:04:45;97616.84;;;2.50;47.08
13312;BME280;34033;48.672;9.376;2022-12-13T14:18:27;97630.47;;;2.43;47.42
13312;BME280;34033;48.672;9.376;2022-12-13T14:28:49;97635.56;;;2.41;47.67
13312;BME280;34033;48.672;9.376;2022-12-13T14:31:34;97637.16;;;2.42;48.48
13312;BME280;34033;48.672;9.376;2022-12-13T14:34:03;97634.13;;;2.31;47.62
13312;BME280;34033;48.672;9.376;2022-12-13T14:36:31;97635.72;;;2.32;49.04
13312;BME280;34033;48.672;9.376;2022-12-13T14:39:05;97631.88;;;2.21;47.02
13312;BME280;34033;48.672;9.376;2022-12-13T14:41:31;97633.50;;;2.22;47.37
13312;BME280;34033;48.672;9.376;2022-12-13T14:44:20;97636.16;;;2.19;48.14
13312;BME280;34033;48.672;9.376;2022-12-13T14:47:05;97641.41;;;2.55;58.07
13312;BME280;34033;48.672;9.376;2022-12-13T14:49:34;97635.88;;;2.55;50.23
13312;BME280;34033;48.672;9.376;2022-12-13T14:52:23;97641.13;;;2.44;48.32
13312;BME280;34033;48.672;9.376;2022-12-13T14:54:57;97644.16;;;2.39;48.55
13312;BME280;34033;48.672;9.376;2022-12-13T14:57:28;97636.69;;;2.40;47.53
13312;BME280;34033;48.672;9.376;2022-12-13T14:59:56;97629.84;;;2.34;48.93
13312;BME280;34033;48.672;9.376;2022-12-13T15:02:24;97629.78;;;2.30;48.68
13312;BME280;34033;48.672;9.376;2022-12-13T15:04:54;97622.47;;;2.22;48.05
13312;BME280;34033;48.672;9.376;2022-12-13T15:07:25;97625.50;;;2.17;47.44
13312;BME280;34033;48.672;9.376;2022-12-13T15:09:56;97623.97;;;2.04;47.40
13312;BME280;34033;48.672;9.376;2022-12-13T15:12:23;97620.31;;;2.00;47.01